createdAt,value
2022-09-24T00:00:53.243Z,0.00
2022-09-24T00:01:53.409Z,0.00
2022-09-24T00:02:53.621Z,0.00
2022-09-24T00:03:53.682Z,0.00
2022-09-24T00:04:53.849Z,0.00
2022-09-24T00:05:54.880Z,0.00
2022-09-24T00:06:54.392Z,0.00
2022-09-24T00:07:54.268Z,0.00
2022-09-24T00:08:54.889Z,0.00
2022-09-24T00:09:54.627Z,0.00
2022-09-24T00:10:54.777Z,0.00
2022-09-24T00:11:54.944Z,0.00
2022-09-24T00:12:55.097Z,0.00
2022-09-24T00:13:55.233Z,0.00
2022-09-24T00:14:55.401Z,0.00
2022-09-24T00:15:55.557Z,0.00
2022-09-24T00:16:55.880Z,0.00
2022-09-24T00:17:55.917Z,0.00
2022-09-24T00:18:56.094Z,0.00
2022-09-24T00:19:56.266Z,0.00
2022-09-24T00:20:56.439Z,0.00
2022-09-24T00:21:56.590Z,0.00
2022-09-24T00:22:57.388Z,0.00
2022-09-24T00:23:56.956Z,0.00
2022-09-24T00:24:57.102Z,0.00
2022-09-24T00:25:58.908Z,0.00
2022-09-24T00:26:57.383Z,0.00
2022-09-24T00:27:57.546Z,0.00
2022-09-24T00:28:57.894Z,0.00
2022-09-24T00:29:57.908Z,0.00
2022-09-24T00:30:58.084Z,0.00
2022-09-24T00:31:58.275Z,0.00
2022-09-24T00:32:58.445Z,0.00
2022-09-24T00:33:58.618Z,0.00
2022-09-24T00:34:59.385Z,0.00
2022-09-24T00:35:59.389Z,0.00
2022-09-24T00:36:59.120Z,0.00
2022-09-24T00:37:59.253Z,0.00
2022-09-24T00:38:59.427Z,0.00
2022-09-24T00:39:59.573Z,0.00
2022-09-24T00:41:00.387Z,0.00
2022-09-24T00:41:59.883Z,0.00
2022-09-24T00:43:00.040Z,0.00
2022-09-24T00:44:00.397Z,0.00
2022-09-24T00:45:00.426Z,0.00
2022-09-24T00:46:00.577Z,0.00
2022-09-24T00:47:00.757Z,0.00
2022-09-24T00:48:01.889Z,0.00
2022-09-24T00:49:01.430Z,0.00
2022-09-24T00:50:01.355Z,0.00
2022-09-24T00:51:01.499Z,0.00
2022-09-24T00:52:01.622Z,0.00
2022-09-24T00:53:01.778Z,0.00
2022-09-24T00:54:02.405Z,0.00
2022-09-24T00:55:02.215Z,0.00
2022-09-24T00:56:02.245Z,0.00
2022-09-24T00:57:02.403Z,0.00
2022-09-24T00:58:03.391Z,0.00
2022-09-24T00:59:02.746Z,0.00
2022-09-24T01:00:02.978Z,0.00
2022-09-24T01:01:03.150Z,0.00
2022-09-24T01:02:03.962Z,0.00
2022-09-24T01:03:03.378Z,0.00
2022-09-24T01:04:03.517Z,0.00
2022-09-24T01:05:03.631Z,0.00
2022-09-24T01:06:03.887Z,0.00
2022-09-24T01:07:04.033Z,0.00
2022-09-24T01:08:04.892Z,0.00
2022-09-24T01:09:04.366Z,0.00
2022-09-24T01:10:05.394Z,0.00
2022-09-24T01:11:04.757Z,0.00
2022-09-24T01:12:04.877Z,0.00
2022-09-24T01:13:05.014Z,0.00
2022-09-24T01:14:05.146Z,0.00
2022-09-24T01:15:05.389Z,0.00
2022-09-24T01:16:05.598Z,0.00
2022-09-24T01:17:05.648Z,0.00
2022-09-24T01:18:05.788Z,0.00
2022-09-24T01:19:06.028Z,0.00
2022-09-24T01:20:06.165Z,0.00
2022-09-24T01:21:06.911Z,0.00
2022-09-24T01:22:06.635Z,0.00
2022-09-24T01:23:06.768Z,0.00
2022-09-24T01:24:06.940Z,0.00
2022-09-24T01:25:07.066Z,0.00
2022-09-24T01:26:07.217Z,0.00
2022-09-24T01:27:07.399Z,0.00
2022-09-24T01:28:07.488Z,0.00
2022-09-24T01:29:07.628Z,0.00
2022-09-24T01:30:07.784Z,0.00
2022-09-24T01:31:07.980Z,0.00
2022-09-24T01:32:08.042Z,0.00
2022-09-24T01:33:08.210Z,0.00
2022-09-24T01:34:08.438Z,0.00
2022-09-24T01:35:08.575Z,0.00
2022-09-24T01:36:09.752Z,0.00
2022-09-24T01:37:08.900Z,0.00
2022-09-24T01:38:09.433Z,0.00
2022-09-24T01:39:09.213Z,0.00
2022-09-24T01:40:09.432Z,0.00
2022-09-24T01:41:09.600Z,0.00
2022-09-24T01:42:09.755Z,0.00
2022-09-24T01:43:09.944Z,0.00
2022-09-24T01:44:10.239Z,0.00
2022-09-24T01:45:10.301Z,0.00
2022-09-24T01:46:10.534Z,0.00
2022-09-24T01:47:10.734Z,0.00
2022-09-24T01:48:10.910Z,0.00
2022-09-24T01:49:11.087Z,0.00
2022-09-24T01:50:11.910Z,0.00
2022-09-24T01:51:12.407Z,0.00
2022-09-24T01:52:11.587Z,0.00
2022-09-24T01:53:11.765Z,0.00
2022-09-24T01:54:12.931Z,0.00
2022-09-24T01:55:12.074Z,0.00
2022-09-24T01:56:12.222Z,0.00
2022-09-24T01:57:12.404Z,0.00
2022-09-24T01:58:13.409Z,0.00
2022-09-24T01:59:12.920Z,0.00
2022-09-24T02:00:12.959Z,0.00
2022-09-24T02:01:13.998Z,0.00
2022-09-24T02:02:13.525Z,0.00
2022-09-24T02:03:13.562Z,0.00
2022-09-24T02:04:13.820Z,0.00
2022-09-24T02:05:13.973Z,0.00
2022-09-24T02:06:14.138Z,0.00
2022-09-24T02:07:14.311Z,0.00
2022-09-24T02:08:15.414Z,0.00
2022-09-24T02:09:14.708Z,0.00
2022-09-24T02:10:14.875Z,0.00
2022-09-24T02:11:15.088Z,0.00
2022-09-24T02:12:15.258Z,0.00
2022-09-24T02:13:15.426Z,0.00
2022-09-24T02:14:15.570Z,0.00
2022-09-24T02:15:16.417Z,0.00
2022-09-24T02:16:16.021Z,0.00
2022-09-24T02:17:16.068Z,0.00
2022-09-24T02:18:17.216Z,0.00
2022-09-24T02:19:16.451Z,0.00
2022-09-24T02:20:16.603Z,0.00
2022-09-24T02:21:16.763Z,0.00
2022-09-24T02:22:16.928Z,0.00
2022-09-24T02:23:17.429Z,0.00
2022-09-24T02:24:17.300Z,0.00
2022-09-24T02:25:17.454Z,0.00
2022-09-24T02:26:17.603Z,0.00
2022-09-24T02:27:17.756Z,0.00
2022-09-24T02:28:17.903Z,0.00
2022-09-24T02:29:18.919Z,0.00
2022-09-24T02:30:18.315Z,0.00
2022-09-24T02:31:18.532Z,0.00
2022-09-24T02:32:18.667Z,0.00
2022-09-24T02:33:18.787Z,0.00
2022-09-24T02:34:18.925Z,0.00
2022-09-24T02:35:19.051Z,0.00
2022-09-24T02:36:19.185Z,0.00
2022-09-24T02:37:19.310Z,0.00
2022-09-24T02:38:20.423Z,0.00
2022-09-24T02:39:19.691Z,0.00
2022-09-24T02:40:20.467Z,0.00
2022-09-24T02:41:19.992Z,0.00
2022-09-24T02:42:20.202Z,0.00
2022-09-24T02:43:21.421Z,0.00
2022-09-24T02:44:20.654Z,0.00
2022-09-24T02:45:20.933Z,0.00
2022-09-24T02:46:21.002Z,0.00
2022-09-24T02:47:21.042Z,0.00
2022-09-24T02:48:21.168Z,0.00
2022-09-24T02:49:21.308Z,0.00
2022-09-24T02:50:21.429Z,0.00
2022-09-24T02:51:21.536Z,0.00
2022-09-24T02:52:21.664Z,0.00
2022-09-24T02:53:21.889Z,0.00
2022-09-24T02:54:22.032Z,0.00
2022-09-24T02:55:22.201Z,0.00
2022-09-24T02:56:22.340Z,0.00
2022-09-24T02:57:22.475Z,0.00
2022-09-24T02:58:22.627Z,0.00
2022-09-24T02:59:22.764Z,0.00
2022-09-24T03:00:22.937Z,0.00
2022-09-24T03:01:23.119Z,0.00
2022-09-24T03:02:23.401Z,0.00
2022-09-24T03:03:23.497Z,0.00
2022-09-24T03:04:24.657Z,0.00
2022-09-24T03:05:23.809Z,0.00
2022-09-24T03:06:23.991Z,0.00
2022-09-24T03:07:24.141Z,0.00
2022-09-24T03:08:24.452Z,0.00
2022-09-24T03:09:24.495Z,0.00
2022-09-24T03:10:24.673Z,0.00
2022-09-24T03:11:24.825Z,0.00
2022-09-24T03:12:24.993Z,0.00
2022-09-24T03:13:25.935Z,0.00
2022-09-24T03:14:25.377Z,0.00
2022-09-24T03:15:25.534Z,0.00
2022-09-24T03:16:26.485Z,0.00
2022-09-24T03:17:25.765Z,0.00
2022-09-24T03:18:25.897Z,0.00
2022-09-24T03:19:26.435Z,0.00
2022-09-24T03:20:26.217Z,0.00
2022-09-24T03:21:26.334Z,0.00
2022-09-24T03:22:26.482Z,0.00
2022-09-24T03:23:26.625Z,0.00
2022-09-24T03:24:27.432Z,0.00
2022-09-24T03:25:27.474Z,0.00
2022-09-24T03:26:27.089Z,0.00
2022-09-24T03:27:27.259Z,0.00
2022-09-24T03:28:27.939Z,0.00
2022-09-24T03:29:27.619Z,0.00
2022-09-24T03:30:27.770Z,0.00
2022-09-24T03:31:28.509Z,0.00
2022-09-24T03:32:28.098Z,0.00
2022-09-24T03:33:28.237Z,0.00
2022-09-24T03:34:28.383Z,0.00
2022-09-24T03:35:28.951Z,0.00
2022-09-24T03:36:28.715Z,0.00
2022-09-24T03:37:28.860Z,0.00
2022-09-24T03:38:29.100Z,0.00
2022-09-24T03:39:29.279Z,0.00
2022-09-24T03:40:29.513Z,0.00
2022-09-24T03:41:29.688Z,0.00
2022-09-24T03:42:29.841Z,0.00
2022-09-24T03:43:30.937Z,0.00
2022-09-24T03:44:30.941Z,0.00
2022-09-24T03:45:30.451Z,0.00
2022-09-24T03:46:30.812Z,0.00
2022-09-24T03:47:30.729Z,0.00
2022-09-24T03:48:30.863Z,0.00
2022-09-24T03:49:31.938Z,0.00
2022-09-24T03:50:31.196Z,0.00
2022-09-24T03:51:31.367Z,0.00
2022-09-24T03:52:32.443Z,0.00
2022-09-24T03:53:31.667Z,0.00
2022-09-24T03:54:31.949Z,0.00
2022-09-24T03:55:32.082Z,0.00
2022-09-24T03:56:32.252Z,0.00
2022-09-24T03:57:32.938Z,0.00
2022-09-24T03:58:32.542Z,0.00
2022-09-24T03:59:32.666Z,0.00
2022-09-24T04:00:36.354Z,0.00
2022-09-24T04:01:34.085Z,0.00
2022-09-24T04:02:33.511Z,0.00
2022-09-24T04:03:33.395Z,0.00
2022-09-24T04:04:33.516Z,0.00
2022-09-24T04:05:33.638Z,0.00
2022-09-24T04:06:33.786Z,0.00
2022-09-24T04:07:34.455Z,0.00
2022-09-24T04:08:34.445Z,0.00
2022-09-24T04:09:34.944Z,0.00
2022-09-24T04:10:35.467Z,0.00
2022-09-24T04:11:34.705Z,0.00
2022-09-24T04:12:34.960Z,0.00
2022-09-24T04:13:35.093Z,0.00
2022-09-24T04:14:35.237Z,0.00
2022-09-24T04:15:35.476Z,0.00
2022-09-24T04:16:35.681Z,0.00
2022-09-24T04:17:35.914Z,0.00
2022-09-24T04:18:39.222Z,0.00
2022-09-24T04:19:37.200Z,0.00
2022-09-24T04:20:36.457Z,0.00
2022-09-24T04:21:37.432Z,0.00
2022-09-24T04:22:37.815Z,0.00
2022-09-24T04:23:36.934Z,0.00
2022-09-24T04:24:37.459Z,0.00
2022-09-24T04:25:37.325Z,0.00
2022-09-24T04:26:37.463Z,0.00
2022-09-24T04:27:37.582Z,0.00
2022-09-24T04:28:37.746Z,0.00
2022-09-24T04:29:37.918Z,0.00
2022-09-24T04:30:38.960Z,0.00
2022-09-24T04:31:38.234Z,0.00
2022-09-24T04:32:38.387Z,0.00
2022-09-24T04:33:38.551Z,0.00
2022-09-24T04:34:38.713Z,0.00
2022-09-24T04:35:38.855Z,0.00
2022-09-24T04:36:39.452Z,0.00
2022-09-24T04:37:39.173Z,0.00
2022-09-24T04:38:39.951Z,0.00
2022-09-24T04:39:39.453Z,0.00
2022-09-24T04:40:39.632Z,0.00
2022-09-24T04:41:39.725Z,0.00
2022-09-24T04:42:39.886Z,0.00
2022-09-24T04:43:40.021Z,0.00
2022-09-24T04:44:41.169Z,0.00
2022-09-24T04:45:40.954Z,0.00
2022-09-24T04:46:40.641Z,0.00
2022-09-24T04:47:40.844Z,0.00
2022-09-24T04:48:41.955Z,0.00
2022-09-24T04:49:41.178Z,0.00
2022-09-24T04:50:45.878Z,0.00
2022-09-24T04:51:43.443Z,0.00
2022-09-24T04:52:41.678Z,0.00
2022-09-24T04:53:41.819Z,0.00
2022-09-24T04:54:41.981Z,0.00
2022-09-24T04:55:42.194Z,0.00
2022-09-24T04:56:43.358Z,0.00
2022-09-24T04:57:42.498Z,0.00
2022-09-24T04:58:42.646Z,0.00
2022-09-24T04:59:42.786Z,0.00
2022-09-24T05:00:42.921Z,0.00
2022-09-24T05:01:43.174Z,0.00
2022-09-24T05:02:44.104Z,0.00
2022-09-24T05:03:43.470Z,0.00
2022-09-24T05:04:43.662Z,0.00
2022-09-24T05:05:43.831Z,0.00
2022-09-24T05:06:43.999Z,0.00
2022-09-24T05:07:44.128Z,0.00
2022-09-24T05:08:44.274Z,0.00
2022-09-24T05:09:44.438Z,0.00
2022-09-24T05:10:44.630Z,0.00
2022-09-24T05:11:44.782Z,0.00
2022-09-24T05:12:44.950Z,0.00
2022-09-24T05:13:45.092Z,0.00
2022-09-24T05:14:45.215Z,0.00
2022-09-24T05:15:45.518Z,0.00
2022-09-24T05:16:45.546Z,0.00
2022-09-24T05:17:45.706Z,0.00
2022-09-24T05:18:45.974Z,0.00
2022-09-24T05:19:46.003Z,0.00
2022-09-24T05:20:46.152Z,0.00
2022-09-24T05:21:46.308Z,0.00
2022-09-24T05:22:46.515Z,0.00
2022-09-24T05:23:46.687Z,0.00
2022-09-24T05:24:46.823Z,0.00
2022-09-24T05:25:46.956Z,0.00
2022-09-24T05:26:47.966Z,0.00
2022-09-24T05:27:47.352Z,0.00
2022-09-24T05:28:47.529Z,0.00
2022-09-24T05:29:47.709Z,0.00
2022-09-24T05:30:47.860Z,0.00
2022-09-24T05:31:48.071Z,0.00
2022-09-24T05:32:48.277Z,0.00
2022-09-24T05:33:48.482Z,0.00
2022-09-24T05:34:48.626Z,0.00
2022-09-24T05:35:48.778Z,0.00
2022-09-24T05:36:48.909Z,0.00
2022-09-24T05:37:49.081Z,0.00
2022-09-24T05:38:49.239Z,0.00
2022-09-24T05:39:49.482Z,0.00
2022-09-24T05:40:50.700Z,0.00
2022-09-24T05:41:49.694Z,0.00
2022-09-24T05:42:49.908Z,0.00
2022-09-24T05:43:50.108Z,5.62
2022-09-24T05:44:52.356Z,5.62
2022-09-24T05:45:51.387Z,5.62
2022-09-24T05:46:50.572Z,5.62
2022-09-24T05:47:51.468Z,5.62
2022-09-24T05:48:50.985Z,5.62
2022-09-24T05:49:51.128Z,11.25
2022-09-24T05:50:51.460Z,11.25
2022-09-24T05:51:51.496Z,11.25
2022-09-24T05:52:51.642Z,11.25
2022-09-24T05:53:51.970Z,11.25
2022-09-24T05:54:51.986Z,16.88
2022-09-24T05:55:52.143Z,16.88
2022-09-24T05:56:52.283Z,16.88
2022-09-24T05:57:52.415Z,16.88
2022-09-24T05:58:52.540Z,22.50
2022-09-24T05:59:52.987Z,22.50
2022-09-24T06:00:52.863Z,22.50
2022-09-24T06:01:53.141Z,22.50
2022-09-24T06:02:54.000Z,28.12
2022-09-24T06:03:53.395Z,28.12
2022-09-24T06:04:53.632Z,28.12
2022-09-24T06:05:53.745Z,28.12
2022-09-24T06:06:53.964Z,33.75
2022-09-24T06:07:54.472Z,33.75
2022-09-24T06:08:54.420Z,33.75
2022-09-24T06:09:55.991Z,39.38
2022-09-24T06:10:54.796Z,39.38
2022-09-24T06:11:55.036Z,39.38
2022-09-24T06:12:55.150Z,45.00
2022-09-24T06:13:55.372Z,45.00
2022-09-24T06:14:55.478Z,45.00
2022-09-24T06:15:56.552Z,50.62
2022-09-24T06:16:55.942Z,50.62
2022-09-24T06:17:56.043Z,56.25
2022-09-24T06:18:56.302Z,56.25
2022-09-24T06:19:56.512Z,61.88
2022-09-24T06:20:56.658Z,56.25
2022-09-24T06:21:56.794Z,56.25
2022-09-24T06:22:56.907Z,61.88
2022-09-24T06:23:57.980Z,67.50
2022-09-24T06:24:57.176Z,67.50
2022-09-24T06:25:57.331Z,73.12
2022-09-24T06:26:57.499Z,84.38
2022-09-24T06:27:58.667Z,95.62
2022-09-24T06:29:03.697Z,140.62
2022-09-24T06:29:59.969Z,202.50
2022-09-24T06:30:58.126Z,264.38
2022-09-24T06:31:59.006Z,241.88
2022-09-24T06:32:58.523Z,202.50
2022-09-24T06:33:59.018Z,174.38
2022-09-24T06:34:59.403Z,118.12
2022-09-24T06:36:00.094Z,78.75
2022-09-24T06:36:59.250Z,73.12
2022-09-24T06:38:00.072Z,73.12
2022-09-24T06:38:59.616Z,95.62
2022-09-24T06:39:59.782Z,95.62
2022-09-24T06:40:59.967Z,78.75
2022-09-24T06:42:00.159Z,67.50
2022-09-24T06:43:00.508Z,61.88
2022-09-24T06:44:00.423Z,56.25
2022-09-24T06:45:00.592Z,56.25
2022-09-24T06:46:00.747Z,67.50
2022-09-24T06:47:00.977Z,61.88
2022-09-24T06:48:01.062Z,56.25
2022-09-24T06:49:01.290Z,56.25
2022-09-24T06:50:01.478Z,50.62
2022-09-24T06:51:01.706Z,50.62
2022-09-24T06:52:02.025Z,45.00
2022-09-24T06:53:01.934Z,45.00
2022-09-24T06:54:02.120Z,45.00
2022-09-24T06:55:03.018Z,45.00
2022-09-24T06:56:03.520Z,39.38
2022-09-24T06:57:02.674Z,45.00
2022-09-24T06:58:03.545Z,45.00
2022-09-24T06:59:03.079Z,45.00
2022-09-24T07:00:03.241Z,45.00
2022-09-24T07:01:04.101Z,45.00
2022-09-24T07:02:04.089Z,45.00
2022-09-24T07:03:03.735Z,45.00
2022-09-24T07:04:03.907Z,50.62
2022-09-24T07:05:05.012Z,50.62
2022-09-24T07:06:04.396Z,50.62
2022-09-24T07:07:04.461Z,50.62
2022-09-24T07:08:04.612Z,50.62
2022-09-24T07:09:04.872Z,56.25
2022-09-24T07:10:04.963Z,56.25
2022-09-24T07:11:05.532Z,61.88
2022-09-24T07:12:05.297Z,67.50
2022-09-24T07:13:05.428Z,73.12
2022-09-24T07:14:05.604Z,78.75
2022-09-24T07:15:06.522Z,84.38
2022-09-24T07:16:05.957Z,95.62
2022-09-24T07:17:06.132Z,106.88
2022-09-24T07:18:06.291Z,112.50
2022-09-24T07:19:06.456Z,118.12
2022-09-24T07:20:06.623Z,118.12
2022-09-24T07:21:06.788Z,118.12
2022-09-24T07:22:06.935Z,118.12
2022-09-24T07:23:08.027Z,118.12
2022-09-24T07:24:07.303Z,123.75
2022-09-24T07:25:07.445Z,123.75
2022-09-24T07:26:07.565Z,118.12
2022-09-24T07:27:07.707Z,118.12
2022-09-24T07:28:07.866Z,140.62
2022-09-24T07:29:08.093Z,185.62
2022-09-24T07:30:08.216Z,185.62
2022-09-24T07:31:08.425Z,180.00
2022-09-24T07:32:09.026Z,157.50
2022-09-24T07:33:09.542Z,129.38
2022-09-24T07:34:09.554Z,106.88
2022-09-24T07:35:09.111Z,118.12
2022-09-24T07:36:09.381Z,129.38
2022-09-24T07:37:09.511Z,123.75
2022-09-24T07:38:10.524Z,146.25
2022-09-24T07:39:09.782Z,123.75
2022-09-24T07:40:09.972Z,118.12
2022-09-24T07:41:10.095Z,129.38
2022-09-24T07:42:11.024Z,129.38
2022-09-24T07:43:10.379Z,140.62
2022-09-24T07:44:11.134Z,140.62
2022-09-24T07:45:10.678Z,163.12
2022-09-24T07:46:10.853Z,208.12
2022-09-24T07:47:14.751Z,219.38
2022-09-24T07:48:12.253Z,151.88
2022-09-24T07:49:11.483Z,101.25
2022-09-24T07:50:11.622Z,84.38
2022-09-24T07:51:11.760Z,73.12
2022-09-24T07:52:11.910Z,67.50
2022-09-24T07:53:12.054Z,67.50
2022-09-24T07:54:16.892Z,67.50
2022-09-24T07:55:14.409Z,61.88
2022-09-24T07:56:12.641Z,56.25
2022-09-24T07:57:12.798Z,56.25
2022-09-24T07:58:13.559Z,56.25
2022-09-24T07:59:13.176Z,56.25
2022-09-24T08:00:13.335Z,56.25
2022-09-24T08:01:13.607Z,50.62
2022-09-24T08:02:13.691Z,50.62
2022-09-24T08:03:14.541Z,50.62
2022-09-24T08:04:14.109Z,50.62
2022-09-24T08:05:15.036Z,50.62
2022-09-24T08:06:14.467Z,50.62
2022-09-24T08:07:14.612Z,56.25
2022-09-24T08:08:14.796Z,56.25
2022-09-24T08:09:14.953Z,56.25
2022-09-24T08:10:16.033Z,56.25
2022-09-24T08:11:16.033Z,61.88
2022-09-24T08:12:15.539Z,67.50
2022-09-24T08:13:15.689Z,67.50
2022-09-24T08:14:15.838Z,73.12
2022-09-24T08:15:16.011Z,78.75
2022-09-24T08:16:17.058Z,84.38
2022-09-24T08:17:16.340Z,90.00
2022-09-24T08:18:17.501Z,95.62
2022-09-24T08:19:17.542Z,101.25
2022-09-24T08:20:16.818Z,112.50
2022-09-24T08:21:16.972Z,106.88
2022-09-24T08:22:17.169Z,112.50
2022-09-24T08:23:18.037Z,118.12
2022-09-24T08:24:17.572Z,118.12
2022-09-24T08:25:17.755Z,123.75
2022-09-24T08:26:17.926Z,146.25
2022-09-24T08:27:18.123Z,151.88
2022-09-24T08:28:18.299Z,180.00
2022-09-24T08:29:18.477Z,168.75
2022-09-24T08:30:18.629Z,157.50
2022-09-24T08:31:18.869Z,151.88
2022-09-24T08:32:19.015Z,146.25
2022-09-24T08:33:19.192Z,140.62
2022-09-24T08:34:19.362Z,140.62
2022-09-24T08:35:19.525Z,140.62
2022-09-24T08:36:19.667Z,140.62
2022-09-24T08:37:19.817Z,140.62
2022-09-24T08:38:20.077Z,135.00
2022-09-24T08:39:20.215Z,129.38
2022-09-24T08:40:21.135Z,123.75
2022-09-24T08:41:21.572Z,123.75
2022-09-24T08:42:20.690Z,123.75
2022-09-24T08:43:20.851Z,118.12
2022-09-24T08:44:21.546Z,123.75
2022-09-24T08:45:21.195Z,129.38
2022-09-24T08:46:21.390Z,135.00
2022-09-24T08:47:22.549Z,129.38
2022-09-24T08:48:21.804Z,123.75
2022-09-24T08:49:22.056Z,123.75
2022-09-24T08:50:22.097Z,123.75
2022-09-24T08:51:23.053Z,129.38
2022-09-24T08:52:22.448Z,146.25
2022-09-24T08:53:23.575Z,140.62
2022-09-24T08:54:22.866Z,129.38
2022-09-24T08:55:23.550Z,129.38
2022-09-24T08:56:23.552Z,129.38
2022-09-24T08:57:23.308Z,140.62
2022-09-24T08:58:24.470Z,146.25
2022-09-24T08:59:23.632Z,123.75
2022-09-24T09:00:23.817Z,123.75
2022-09-24T09:01:24.029Z,118.12
2022-09-24T09:02:24.190Z,118.12
2022-09-24T09:03:24.253Z,118.12
2022-09-24T09:04:24.448Z,123.75
2022-09-24T09:05:24.602Z,123.75
2022-09-24T09:06:25.555Z,129.38
2022-09-24T09:07:24.947Z,129.38
2022-09-24T09:08:50.576Z,129.38
2022-09-24T09:09:27.396Z,129.38
2022-09-24T09:10:25.512Z,129.38
2022-09-24T09:11:25.720Z,129.38
2022-09-24T09:12:25.899Z,123.75
2022-09-24T09:13:26.056Z,123.75
2022-09-24T09:14:30.592Z,123.75
2022-09-24T09:15:28.372Z,123.75
2022-09-24T09:16:27.096Z,123.75
2022-09-24T09:17:26.656Z,123.75
2022-09-24T09:18:27.565Z,129.38
2022-09-24T09:19:26.997Z,129.38
2022-09-24T09:20:28.057Z,135.00
2022-09-24T09:21:27.311Z,140.62
2022-09-24T09:22:27.477Z,135.00
2022-09-24T09:23:28.559Z,140.62
2022-09-24T09:24:28.086Z,151.88
2022-09-24T09:25:28.002Z,163.12
2022-09-24T09:26:30.054Z,163.12
2022-09-24T09:27:29.066Z,157.50
2022-09-24T09:28:28.489Z,157.50
2022-09-24T09:29:28.707Z,157.50
2022-09-24T09:30:28.883Z,157.50
2022-09-24T09:31:29.660Z,157.50
2022-09-24T09:32:30.061Z,163.12
2022-09-24T09:33:29.465Z,191.25
2022-09-24T09:34:29.642Z,191.25
2022-09-24T09:35:29.801Z,208.12
2022-09-24T09:36:30.565Z,185.62
2022-09-24T09:37:31.064Z,180.00
2022-09-24T09:38:30.567Z,163.12
2022-09-24T09:39:31.088Z,163.12
2022-09-24T09:40:32.196Z,163.12
2022-09-24T09:41:31.753Z,157.50
2022-09-24T09:42:31.564Z,151.88
2022-09-24T09:43:33.066Z,151.88
2022-09-24T09:44:32.092Z,151.88
2022-09-24T09:45:31.486Z,146.25
2022-09-24T09:46:31.738Z,146.25
2022-09-24T09:47:31.836Z,151.88
2022-09-24T09:48:31.975Z,151.88
2022-09-24T09:49:32.164Z,157.50
2022-09-24T09:50:32.327Z,163.12
2022-09-24T09:51:32.481Z,174.38
2022-09-24T09:52:33.082Z,191.25
2022-09-24T09:53:32.836Z,213.75
2022-09-24T09:54:32.996Z,219.38
2022-09-24T09:55:33.165Z,225.00
2022-09-24T09:56:34.064Z,236.25
2022-09-24T09:57:34.084Z,236.25
2022-09-24T09:58:33.722Z,236.25
2022-09-24T09:59:33.929Z,241.88
2022-09-24T10:00:34.139Z,236.25
2022-09-24T10:01:34.355Z,230.62
2022-09-24T10:02:34.716Z,225.00
2022-09-24T10:03:35.603Z,213.75
2022-09-24T10:04:35.572Z,213.75
2022-09-24T10:05:35.120Z,208.12
2022-09-24T10:06:35.583Z,213.75
2022-09-24T10:07:35.541Z,202.50
2022-09-24T10:08:35.717Z,202.50
2022-09-24T10:09:36.568Z,191.25
2022-09-24T10:10:36.108Z,196.88
2022-09-24T10:11:36.278Z,196.88
2022-09-24T10:12:36.468Z,196.88
2022-09-24T10:13:36.648Z,219.38
2022-09-24T10:14:37.086Z,219.38
2022-09-24T10:15:40.713Z,225.00
2022-09-24T10:16:39.140Z,225.00
2022-09-24T10:17:37.343Z,213.75
2022-09-24T10:18:37.517Z,208.12
2022-09-24T10:19:38.087Z,202.50
2022-09-24T10:20:37.892Z,202.50
2022-09-24T10:21:38.096Z,196.88
2022-09-24T10:22:38.276Z,174.38
2022-09-24T10:23:38.454Z,168.75
2022-09-24T10:24:39.085Z,168.75
2022-09-24T10:25:38.787Z,168.75
2022-09-24T10:26:43.995Z,180.00
2022-09-24T10:27:41.578Z,168.75
2022-09-24T10:28:39.441Z,174.38
2022-09-24T10:29:39.651Z,168.75
2022-09-24T10:30:39.865Z,163.12
2022-09-24T10:31:40.195Z,157.50
2022-09-24T10:32:42.088Z,151.88
2022-09-24T10:33:40.356Z,146.25
2022-09-24T10:34:40.567Z,146.25
2022-09-24T10:35:40.749Z,135.00
2022-09-24T10:36:40.960Z,135.00
2022-09-24T10:37:41.141Z,129.38
2022-09-24T10:38:41.318Z,123.75
2022-09-24T10:39:42.086Z,118.12
2022-09-24T10:40:41.899Z,112.50
2022-09-24T10:41:41.919Z,106.88
2022-09-24T10:42:43.095Z,101.25
2022-09-24T10:43:42.237Z,95.62
2022-09-24T10:44:43.083Z,95.62
2022-09-24T10:45:42.647Z,95.62
2022-09-24T10:46:42.959Z,95.62
2022-09-24T10:47:43.064Z,90.00
2022-09-24T10:48:43.226Z,84.38
2022-09-24T10:49:43.597Z,78.75
2022-09-24T10:50:43.549Z,78.75
2022-09-24T10:51:43.743Z,73.12
2022-09-24T10:52:44.575Z,67.50
2022-09-24T10:53:45.161Z,67.50
2022-09-24T10:54:44.356Z,61.88
2022-09-24T10:55:44.585Z,61.88
2022-09-24T10:56:46.570Z,61.88
2022-09-24T10:57:45.949Z,61.88
2022-09-24T10:58:45.145Z,61.88
2022-09-24T10:59:45.342Z,61.88
2022-09-24T11:00:45.516Z,61.88
2022-09-24T11:01:45.731Z,61.88
2022-09-24T11:02:45.879Z,61.88
2022-09-24T11:03:46.122Z,67.50
2022-09-24T11:04:47.094Z,67.50
2022-09-24T11:05:46.453Z,67.50
2022-09-24T11:06:46.549Z,67.50
2022-09-24T11:07:47.592Z,73.12
2022-09-24T11:08:46.889Z,73.12
2022-09-24T11:09:47.081Z,73.12
2022-09-24T11:10:47.273Z,73.12
2022-09-24T11:11:48.466Z,73.12
2022-09-24T11:12:47.620Z,67.50
2022-09-24T11:13:51.175Z,67.50
2022-09-24T11:14:49.012Z,73.12
2022-09-24T11:15:48.201Z,73.12
2022-09-24T11:16:48.385Z,67.50
2022-09-24T11:17:48.554Z,67.50
2022-09-24T11:18:48.742Z,61.88
2022-09-24T11:19:48.930Z,56.25
2022-09-24T11:20:49.115Z,56.25
2022-09-24T11:21:49.327Z,50.62
2022-09-24T11:22:49.509Z,50.62
2022-09-24T11:23:49.680Z,45.00
2022-09-24T11:24:50.597Z,45.00
2022-09-24T11:25:50.111Z,45.00
2022-09-24T11:26:50.188Z,45.00
2022-09-24T11:27:50.380Z,45.00
2022-09-24T11:28:51.097Z,45.00
2022-09-24T11:29:50.762Z,39.38
2022-09-24T11:30:50.991Z,39.38
2022-09-24T11:31:51.133Z,33.75
2022-09-24T11:32:51.228Z,33.75
2022-09-24T11:33:51.430Z,28.12
2022-09-24T11:34:51.587Z,28.12
2022-09-24T11:35:51.770Z,28.12
2022-09-24T11:36:52.136Z,22.50
2022-09-24T11:37:52.066Z,22.50
2022-09-24T11:38:52.619Z,22.50
2022-09-24T11:39:53.104Z,22.50
2022-09-24T11:40:52.699Z,16.88
2022-09-24T11:41:52.783Z,16.88
2022-09-24T11:42:53.604Z,16.88
2022-09-24T11:43:54.191Z,16.88
2022-09-24T11:44:53.603Z,16.88
2022-09-24T11:45:53.513Z,16.88
2022-09-24T11:46:53.734Z,16.88
2022-09-24T11:47:53.826Z,11.25
2022-09-24T11:48:54.007Z,11.25
2022-09-24T11:49:54.191Z,11.25
2022-09-24T11:50:55.103Z,11.25
2022-09-24T11:51:54.613Z,11.25
2022-09-24T11:52:54.777Z,5.62
2022-09-24T11:53:54.931Z,5.62
2022-09-24T11:54:55.091Z,5.62
2022-09-24T11:55:55.621Z,5.62
2022-09-24T11:56:55.402Z,5.62
2022-09-24T11:57:56.106Z,5.62
2022-09-24T11:58:55.723Z,5.62
2022-09-24T11:59:56.610Z,5.62
2022-09-24T12:00:56.009Z,5.62
2022-09-24T12:01:57.179Z,5.62
2022-09-24T12:02:56.298Z,5.62
2022-09-24T12:03:57.113Z,5.62
2022-09-24T12:04:56.633Z,5.62
2022-09-24T12:05:57.123Z,5.62
2022-09-24T12:06:56.997Z,5.62
2022-09-24T12:07:57.203Z,5.62
2022-09-24T12:08:58.118Z,11.25
2022-09-24T12:09:58.118Z,11.25
2022-09-24T12:10:58.609Z,11.25
2022-09-24T12:11:58.633Z,11.25
2022-09-24T12:12:58.158Z,16.88
2022-09-24T12:13:58.283Z,16.88
2022-09-24T12:14:58.328Z,22.50
2022-09-24T12:15:58.610Z,22.50
2022-09-24T12:16:58.725Z,22.50
2022-09-24T12:17:58.942Z,28.12
2022-09-24T12:18:59.615Z,28.12
2022-09-24T12:19:59.276Z,28.12
2022-09-24T12:20:59.485Z,33.75
2022-09-24T12:21:59.645Z,33.75
2022-09-24T12:22:59.828Z,33.75
2022-09-24T12:24:02.988Z,33.75
2022-09-24T12:25:01.111Z,33.75
2022-09-24T12:26:00.250Z,33.75
2022-09-24T12:27:00.436Z,33.75
2022-09-24T12:28:01.115Z,33.75
2022-09-24T12:29:00.742Z,33.75
2022-09-24T12:30:01.636Z,33.75
2022-09-24T12:31:01.680Z,33.75
2022-09-24T12:32:01.296Z,28.12
2022-09-24T12:33:01.483Z,28.12
2022-09-24T12:34:02.204Z,28.12
2022-09-24T12:35:01.795Z,28.12
2022-09-24T12:36:01.989Z,28.12
2022-09-24T12:37:02.177Z,28.12
2022-09-24T12:38:02.376Z,22.50
2022-09-24T12:39:03.119Z,22.50
2022-09-24T12:40:02.768Z,22.50
2022-09-24T12:41:02.976Z,22.50
2022-09-24T12:42:03.094Z,22.50
2022-09-24T12:43:03.299Z,22.50
2022-09-24T12:44:03.511Z,22.50
2022-09-24T12:45:03.759Z,16.88
2022-09-24T12:46:03.860Z,16.88
2022-09-24T12:47:04.051Z,16.88
2022-09-24T12:48:04.226Z,16.88
2022-09-24T12:49:04.413Z,16.88
2022-09-24T12:50:04.612Z,22.50
2022-09-24T12:51:04.796Z,22.50
2022-09-24T12:52:04.978Z,22.50
2022-09-24T12:53:06.123Z,22.50
2022-09-24T12:54:06.129Z,22.50
2022-09-24T12:55:05.557Z,22.50
2022-09-24T12:56:05.710Z,22.50
2022-09-24T12:57:05.870Z,22.50
2022-09-24T12:58:06.059Z,22.50
2022-09-24T12:59:06.229Z,28.12
2022-09-24T13:00:06.428Z,28.12
2022-09-24T13:01:07.124Z,28.12